sensor_id;sensor_type;location;lat;lon;timestamp;P1;durP1;ratioP1;P2;durP2;ratioP2
9807;SDS011;4943;52.550;13.462;2023-07-22T00:02:12;332.50;;;201.67;;
9807;SDS011;4943;52.550;13.462;2023-07-22T00:04:40;325.53;;;188.50;;
9807;SDS011;4943;52.550;13.462;2023-07-22T00:07:08;330.23;;;202.10;;
9807;SDS011;4943;52.550;13.462;2023-07-22T00:09:36;327.63;;;192.20;;
9807;SDS011;4943;52.550;13.462;2023-07-22T00:12:05;332.80;;;195.27;;
9807;SDS011;4943;52.550;13.462;2023-07-22T00:14:37;329.07;;;194.93;;
9807;SDS011;4943;52.550;13.462;2023-07-22T00:17:07;329.90;;;200.30;;
9807;SDS011;4943;52.550;13.462;2023-07-22T00:19:35;322.43;;;176.13;;
9807;SDS011;4943;52.550;13.462;2023-07-22T00:22:03;330.23;;;196.30;;
9807;SDS011;4943;52.550;13.462;2023-07-22T00:24:31;329.47;;;195.83;;
9807;SDS011;4943;52.550;13.462;2023-07-22T00:27:00;329.93;;;199.17;;
9807;SDS011;4943;52.550;13.462;2023-07-22T00:29:28;332.03;;;200.57;;
9807;SDS011;4943;52.550;13.462;2023-07-22T00:31:57;328.67;;;202.10;;
9807;SDS011;4943;52.550;13.462;2023-07-22T00:34:25;324.03;;;187.23;;
9807;SDS011;4943;52.550;13.462;2023-07-22T00:36:53;331.03;;;209.37;;
9807;SDS011;4943;52.550;13.462;2023-07-22T00:39:21;333.53;;;209.33;;
9807;SDS011;4943;52.550;13.462;2023-07-22T00:41:50;331.10;;;202.00;;
9807;SDS011;4943;52.550;13.462;2023-07-22T00:44:18;328.67;;;201.40;;
9807;SDS011;4943;52.550;13.462;2023-07-22T00:46:46;325.53;;;197.13;;
9807;SDS011;4943;52.550;13.462;2023-07-22T00:49:15;325.83;;;192.73;;
9807;SDS011;4943;52.550;13.462;2023-07-22T00:51:44;330.50;;;212.23;;
9807;SDS011;4943;52.550;13.462;2023-07-22T00:54:12;325.53;;;194.67;;
9807;SDS011;4943;52.550;13.462;2023-07-22T00:56:41;332.90;;;213.03;;
9807;SDS011;4943;52.550;13.462;2023-07-22T00:59:10;326.80;;;198.03;;
9807;SDS011;4943;52.550;13.462;2023-07-22T01:01:40;330.93;;;201.13;;
9807;SDS011;4943;52.550;13.462;2023-07-22T01:04:08;335.57;;;218.50;;
9807;SDS011;4943;52.550;13.462;2023-07-22T01:06:38;328.23;;;201.07;;
9807;SDS011;4943;52.550;13.462;2023-07-22T01:09:06;328.83;;;193.70;;
9807;SDS011;4943;52.550;13.462;2023-07-22T01:11:35;329.67;;;204.57;;
9807;SDS011;4943;52.550;13.462;2023-07-22T01:14:03;330.53;;;205.10;;
9807;SDS011;4943;52.550;13.462;2023-07-22T01:16:31;335.37;;;218.13;;
9807;SDS011;4943;52.550;13.462;2023-07-22T01:18:59;337.00;;;223.27;;
9807;SDS011;4943;52.550;13.462;2023-07-22T01:21:28;332.07;;;213.83;;
9807;SDS011;4943;52.550;13.462;2023-07-22T01:23:58;332.83;;;219.10;;
9807;SDS011;4943;52.550;13.462;2023-07-22T01:26:26;343.43;;;227.83;;
9807;SDS011;4943;52.550;13.462;2023-07-22T01:29:01;334.17;;;218.77;;
9807;SDS011;4943;52.550;13.462;2023-07-22T01:31:30;333.10;;;215.33;;
9807;SDS011;4943;52.550;13.462;2023-07-22T01:33:58;335.33;;;217.70;;
9807;SDS011;4943;52.550;13.462;2023-07-22T01:36:26;330.53;;;210.20;;
9807;SDS011;4943;52.550;13.462;2023-07-22T01:38:54;330.87;;;207.10;;
9807;SDS011;4943;52.550;13.462;2023-07-22T01:41:24;333.63;;;222.93;;
9807;SDS011;4943;52.550;13.462;2023-07-22T01:43:53;344.17;;;231.13;;
9807;SDS011;4943;52.550;13.462;2023-07-22T01:46:22;333.70;;;212.40;;
9807;SDS011;4943;52.550;13.462;2023-07-22T01:48:50;333.40;;;216.80;;
9807;SDS011;4943;52.550;13.462;2023-07-22T01:51:18;336.60;;;219.70;;
9807;SDS011;4943;52.550;13.462;2023-07-22T01:53:46;333.20;;;211.27;;
9807;SDS011;4943;52.550;13.462;2023-07-22T01:56:15;335.13;;;220.80;;
9807;SDS011;4943;52.550;13.462;2023-07-22T01:58:45;336.30;;;211.50;;
9807;SDS011;4943;52.550;13.462;2023-07-22T02:01:14;336.93;;;221.73;;
9807;SDS011;4943;52.550;13.462;2023-07-22T02:03:42;335.47;;;214.83;;
9807;SDS011;4943;52.550;13.462;2023-07-22T02:06:11;340.63;;;225.70;;
9807;SDS011;4943;52.550;13.462;2023-07-22T02:08:40;334.73;;;212.50;;
9807;SDS011;4943;52.550;13.462;2023-07-22T02:11:08;336.33;;;216.93;;
9807;SDS011;4943;52.550;13.462;2023-07-22T02:13:36;331.13;;;209.27;;
9807;SDS011;4943;52.550;13.462;2023-07-22T02:16:06;347.33;;;218.13;;
9807;SDS011;4943;52.550;13.462;2023-07-22T02:18:37;325.90;;;194.70;;
9807;SDS011;4943;52.550;13.462;2023-07-22T02:21:06;333.83;;;206.80;;
9807;SDS011;4943;52.550;13.462;2023-07-22T02:23:34;333.77;;;211.47;;
9807;SDS011;4943;52.550;13.462;2023-07-22T02:26:02;334.73;;;214.00;;
9807;SDS011;4943;52.550;13.462;2023-07-22T02:28:30;332.50;;;211.83;;
9807;SDS011;4943;52.550;13.462;2023-07-22T02:31:00;332.53;;;212.17;;
9807;SDS011;4943;52.550;13.462;2023-07-22T02:33:31;327.80;;;197.60;;
9807;SDS011;4943;52.550;13.462;2023-07-22T02:35:59;332.50;;;212.20;;
9807;SDS011;4943;52.550;13.462;2023-07-22T02:38:27;330.93;;;197.20;;
9807;SDS011;4943;52.550;13.462;2023-07-22T02:41:00;326.03;;;189.03;;
9807;SDS011;4943;52.550;13.462;2023-07-22T02:43:29;324.07;;;187.07;;
9807;SDS011;4943;52.550;13.462;2023-07-22T02:45:59;328.53;;;203.30;;
9807;SDS011;4943;52.550;13.462;2023-07-22T02:48:28;326.23;;;192.37;;
9807;SDS011;4943;52.550;13.462;2023-07-22T02:51:03;332.70;;;195.00;;
9807;SDS011;4943;52.550;13.462;2023-07-22T02:53:31;333.23;;;199.23;;
9807;SDS011;4943;52.550;13.462;2023-07-22T02:56:00;330.00;;;193.47;;
9807;SDS011;4943;52.550;13.462;2023-07-22T02:58:28;330.60;;;192.53;;
9807;SDS011;4943;52.550;13.462;2023-07-22T03:00:56;328.17;;;189.87;;
9807;SDS011;4943;52.550;13.462;2023-07-22T03:03:25;322.23;;;179.60;;
9807;SDS011;4943;52.550;13.462;2023-07-22T03:05:53;325.23;;;177.07;;
9807;SDS011;4943;52.550;13.462;2023-07-22T03:08:23;323.23;;;180.70;;
9807;SDS011;4943;52.550;13.462;2023-07-22T03:10:51;326.57;;;188.03;;
9807;SDS011;4943;52.550;13.462;2023-07-22T03:13:19;324.17;;;179.83;;
9807;SDS011;4943;52.550;13.462;2023-07-22T03:15:47;328.97;;;188.20;;
9807;SDS011;4943;52.550;13.462;2023-07-22T03:18:16;328.10;;;180.70;;
9807;SDS011;4943;52.550;13.462;2023-07-22T03:20:44;322.73;;;180.37;;
9807;SDS011;4943;52.550;13.462;2023-07-22T03:23:12;324.97;;;184.30;;
9807;SDS011;4943;52.550;13.462;2023-07-22T03:25:41;323.37;;;176.17;;
9807;SDS011;4943;52.550;13.462;2023-07-22T03:28:09;323.60;;;179.23;;
9807;SDS011;4943;52.550;13.462;2023-07-22T03:30:39;323.93;;;175.53;;
9807;SDS011;4943;52.550;13.462;2023-07-22T03:33:07;327.27;;;188.20;;
9807;SDS011;4943;52.550;13.462;2023-07-22T03:35:36;328.23;;;180.93;;
9807;SDS011;4943;52.550;13.462;2023-07-22T03:38:07;327.90;;;178.27;;
9807;SDS011;4943;52.550;13.462;2023-07-22T03:40:35;323.23;;;178.00;;
9807;SDS011;4943;52.550;13.462;2023-07-22T03:43:05;318.50;;;167.57;;
9807;SDS011;4943;52.550;13.462;2023-07-22T03:45:34;322.37;;;178.23;;
9807;SDS011;4943;52.550;13.462;2023-07-22T03:48:02;324.00;;;181.60;;
9807;SDS011;4943;52.550;13.462;2023-07-22T03:50:30;323.97;;;182.03;;
9807;SDS011;4943;52.550;13.462;2023-07-22T03:52:58;325.10;;;186.23;;
9807;SDS011;4943;52.550;13.462;2023-07-22T03:55:26;323.87;;;180.97;;
9807;SDS011;4943;52.550;13.462;2023-07-22T03:57:54;327.27;;;186.47;;
9807;SDS011;4943;52.550;13.462;2023-07-22T04:00:24;326.83;;;187.40;;
9807;SDS011;4943;52.550;13.462;2023-07-22T04:02:52;327.83;;;178.40;;
9807;SDS011;4943;52.550;13.462;2023-07-22T04:05:20;327.30;;;190.73;;
9807;SDS011;4943;52.550;13.462;2023-07-22T04:07:48;328.67;;;193.50;;
9807;SDS011;4943;52.550;13.462;2023-07-22T04:10:17;330.03;;;202.03;;
9807;SDS011;4943;52.550;13.462;2023-07-22T04:12:45;332.30;;;203.20;;
9807;SDS011;4943;52.550;13.462;2023-07-22T04:15:13;340.03;;;226.53;;
9807;SDS011;4943;52.550;13.462;2023-07-22T04:17:43;331.87;;;210.90;;
9807;SDS011;4943;52.550;13.462;2023-07-22T04:20:11;328.10;;;200.87;;
9807;SDS011;4943;52.550;13.462;2023-07-22T04:22:39;339.07;;;220.03;;
9807;SDS011;4943;52.550;13.462;2023-07-22T04:25:07;337.23;;;226.03;;
9807;SDS011;4943;52.550;13.462;2023-07-22T04:27:36;331.03;;;205.20;;
9807;SDS011;4943;52.550;13.462;2023-07-22T04:30:05;328.40;;;204.57;;
9807;SDS011;4943;52.550;13.462;2023-07-22T04:32:34;332.70;;;210.10;;
9807;SDS011;4943;52.550;13.462;2023-07-22T04:35:04;328.17;;;201.07;;
9807;SDS011;4943;52.550;13.462;2023-07-22T04:37:33;328.17;;;201.70;;
9807;SDS011;4943;52.550;13.462;2023-07-22T04:40:01;333.73;;;209.43;;
9807;SDS011;4943;52.550;13.462;2023-07-22T04:42:34;334.07;;;209.90;;
9807;SDS011;4943;52.550;13.462;2023-07-22T04:45:03;330.20;;;198.43;;
9807;SDS011;4943;52.550;13.462;2023-07-22T04:47:32;332.00;;;203.73;;
9807;SDS011;4943;52.550;13.462;2023-07-22T04:50:00;331.23;;;209.77;;
9807;SDS011;4943;52.550;13.462;2023-07-22T04:52:30;327.93;;;196.17;;
9807;SDS011;4943;52.550;13.462;2023-07-22T04:54:58;337.40;;;214.17;;
9807;SDS011;4943;52.550;13.462;2023-07-22T04:57:26;330.97;;;202.07;;
9807;SDS011;4943;52.550;13.462;2023-07-22T04:59:55;332.93;;;215.20;;
9807;SDS011;4943;52.550;13.462;2023-07-22T05:02:23;339.20;;;217.90;;
9807;SDS011;4943;52.550;13.462;2023-07-22T05:04:51;331.17;;;206.00;;
9807;SDS011;4943;52.550;13.462;2023-07-22T05:07:19;332.20;;;199.53;;
9807;SDS011;4943;52.550;13.462;2023-07-22T05:09:49;328.87;;;200.73;;
9807;SDS011;4943;52.550;13.462;2023-07-22T05:12:17;339.47;;;223.07;;
9807;SDS011;4943;52.550;13.462;2023-07-22T05:14:45;330.43;;;208.63;;
9807;SDS011;4943;52.550;13.462;2023-07-22T05:17:14;332.27;;;209.37;;
9807;SDS011;4943;52.550;13.462;2023-07-22T05:19:42;337.93;;;211.93;;
9807;SDS011;4943;52.550;13.462;2023-07-22T05:22:10;344.83;;;241.27;;
9807;SDS011;4943;52.550;13.462;2023-07-22T05:24:38;331.13;;;206.03;;
9807;SDS011;4943;52.550;13.462;2023-07-22T05:27:08;332.30;;;211.63;;
9807;SDS011;4943;52.550;13.462;2023-07-22T05:29:36;337.43;;;222.60;;
9807;SDS011;4943;52.550;13.462;2023-07-22T05:32:04;329.67;;;201.77;;
9807;SDS011;4943;52.550;13.462;2023-07-22T05:34:52;336.43;;;212.57;;
9807;SDS011;4943;52.550;13.462;2023-07-22T05:37:21;333.33;;;212.57;;
9807;SDS011;4943;52.550;13.462;2023-07-22T05:39:49;339.47;;;227.83;;
9807;SDS011;4943;52.550;13.462;2023-07-22T05:42:18;335.77;;;219.87;;
9807;SDS011;4943;52.550;13.462;2023-07-22T05:44:47;335.47;;;219.83;;
9807;SDS011;4943;52.550;13.462;2023-07-22T05:47:15;346.73;;;245.23;;
9807;SDS011;4943;52.550;13.462;2023-07-22T05:49:45;336.40;;;217.43;;
9807;SDS011;4943;52.550;13.462;2023-07-22T05:52:13;342.63;;;239.53;;
9807;SDS011;4943;52.550;13.462;2023-07-22T05:54:41;339.30;;;226.37;;
9807;SDS011;4943;52.550;13.462;2023-07-22T05:57:09;344.20;;;242.20;;
9807;SDS011;4943;52.550;13.462;2023-07-22T05:59:38;340.77;;;230.57;;
9807;SDS011;4943;52.550;13.462;2023-07-22T06:02:07;349.80;;;255.13;;
9807;SDS011;4943;52.550;13.462;2023-07-22T06:04:36;343.20;;;240.13;;
9807;SDS011;4943;52.550;13.462;2023-07-22T06:07:05;347.30;;;248.27;;
9807;SDS011;4943;52.550;13.462;2023-07-22T06:09:33;354.90;;;269.57;;
9807;SDS011;4943;52.550;13.462;2023-07-22T06:12:02;363.37;;;274.63;;
9807;SDS011;4943;52.550;13.462;2023-07-22T06:14:30;359.30;;;275.70;;
9807;SDS011;4943;52.550;13.462;2023-07-22T06:17:00;354.63;;;265.17;;
9807;SDS011;4943;52.550;13.462;2023-07-22T06:19:28;353.47;;;263.97;;
9807;SDS011;4943;52.550;13.462;2023-07-22T06:21:57;352.13;;;262.57;;
9807;SDS011;4943;52.550;13.462;2023-07-22T06:24:25;357.17;;;276.47;;
9807;SDS011;4943;52.550;13.462;2023-07-22T06:26:53;353.67;;;266.13;;
9807;SDS011;4943;52.550;13.462;2023-07-22T06:29:21;355.70;;;265.77;;
9807;SDS011;4943;52.550;13.462;2023-07-22T06:31:49;355.80;;;267.40;;
9807;SDS011;4943;52.550;13.462;2023-07-22T06:34:19;356.77;;;254.90;;
9807;SDS011;4943;52.550;13.462;2023-07-22T06:36:47;347.40;;;247.50;;
9807;SDS011;4943;52.550;13.462;2023-07-22T06:39:15;353.63;;;258.23;;
9807;SDS011;4943;52.550;13.462;2023-07-22T06:41:43;346.80;;;242.17;;
9807;SDS011;4943;52.550;13.462;2023-07-22T06:44:11;350.40;;;259.20;;
9807;SDS011;4943;52.550;13.462;2023-07-22T06:46:39;348.83;;;257.20;;
9807;SDS011;4943;52.550;13.462;2023-07-22T06:49:10;349.87;;;265.37;;
9807;SDS011;4943;52.550;13.462;2023-07-22T06:51:39;359.77;;;289.37;;
9807;SDS011;4943;52.550;13.462;2023-07-22T06:54:08;353.60;;;268.07;;
9807;SDS011;4943;52.550;13.462;2023-07-22T06:56:36;359.43;;;279.97;;
9807;SDS011;4943;52.550;13.462;2023-07-22T06:59:04;354.87;;;262.17;;
9807;SDS011;4943;52.550;13.462;2023-07-22T07:01:32;356.70;;;277.17;;
9807;SDS011;4943;52.550;13.462;2023-07-22T07:04:03;353.30;;;265.20;;
9807;SDS011;4943;52.550;13.462;2023-07-22T07:06:31;356.23;;;276.40;;
9807;SDS011;4943;52.550;13.462;2023-07-22T07:09:01;356.90;;;284.30;;
9807;SDS011;4943;52.550;13.462;2023-07-22T07:11:29;353.47;;;277.20;;
9807;SDS011;4943;52.550;13.462;2023-07-22T07:13:58;356.33;;;278.57;;
9807;SDS011;4943;52.550;13.462;2023-07-22T07:16:26;358.93;;;290.07;;
9807;SDS011;4943;52.550;13.462;2023-07-22T07:18:56;358.93;;;288.17;;
9807;SDS011;4943;52.550;13.462;2023-07-22T07:21:25;357.70;;;287.30;;
9807;SDS011;4943;52.550;13.462;2023-07-22T07:23:53;359.23;;;286.50;;
9807;SDS011;4943;52.550;13.462;2023-07-22T07:26:23;359.27;;;296.10;;
9807;SDS011;4943;52.550;13.462;2023-07-22T07:28:52;360.80;;;293.00;;
9807;SDS011;4943;52.550;13.462;2023-07-22T07:31:20;357.30;;;290.07;;
9807;SDS011;4943;52.550;13.462;2023-07-22T07:33:48;363.37;;;304.83;;
9807;SDS011;4943;52.550;13.462;2023-07-22T07:36:17;365.17;;;304.97;;
9807;SDS011;4943;52.550;13.462;2023-07-22T07:38:45;365.03;;;305.67;;
9807;SDS011;4943;52.550;13.462;2023-07-22T07:41:13;367.93;;;322.83;;
9807;SDS011;4943;52.550;13.462;2023-07-22T07:43:43;367.73;;;317.70;;
9807;SDS011;4943;52.550;13.462;2023-07-22T07:46:12;364.07;;;316.13;;
9807;SDS011;4943;52.550;13.462;2023-07-22T07:48:44;357.33;;;293.47;;
9807;SDS011;4943;52.550;13.462;2023-07-22T07:51:13;373.33;;;332.27;;
9807;SDS011;4943;52.550;13.462;2023-07-22T07:53:42;365.83;;;314.70;;
9807;SDS011;4943;52.550;13.462;2023-07-22T07:56:11;362.20;;;310.60;;
9807;SDS011;4943;52.550;13.462;2023-07-22T07:58:39;366.23;;;310.17;;
9807;SDS011;4943;52.550;13.462;2023-07-22T08:01:09;367.87;;;326.43;;
9807;SDS011;4943;52.550;13.462;2023-07-22T08:03:37;375.23;;;333.90;;
9807;SDS011;4943;52.550;13.462;2023-07-22T08:06:06;383.07;;;341.60;;
9807;SDS011;4943;52.550;13.462;2023-07-22T08:08:34;365.40;;;311.00;;
9807;SDS011;4943;52.550;13.462;2023-07-22T08:11:03;366.23;;;315.93;;
9807;SDS011;4943;52.550;13.462;2023-07-22T08:13:33;368.90;;;326.17;;
9807;SDS011;4943;52.550;13.462;2023-07-22T08:16:02;368.77;;;327.67;;
9807;SDS011;4943;52.550;13.462;2023-07-22T08:18:33;365.57;;;323.27;;
9807;SDS011;4943;52.550;13.462;2023-07-22T08:21:02;384.60;;;343.53;;
9807;SDS011;4943;52.550;13.462;2023-07-22T08:23:31;375.97;;;334.90;;
9807;SDS011;4943;52.550;13.462;2023-07-22T08:26:00;371.10;;;330.30;;
9807;SDS011;4943;52.550;13.462;2023-07-22T08:28:29;379.70;;;338.50;;
9807;SDS011;4943;52.550;13.462;2023-07-22T08:30:57;387.63;;;346.17;;
9807;SDS011;4943;52.550;13.462;2023-07-22T08:33:27;382.00;;;340.90;;
9807;SDS011;4943;52.550;13.462;2023-07-22T08:36:07;394.43;;;353.00;;
9807;SDS011;4943;52.550;13.462;2023-07-22T08:38:36;387.10;;;345.87;;
9807;SDS011;4943;52.550;13.462;2023-07-22T08:41:05;390.47;;;349.37;;
9807;SDS011;4943;52.550;13.462;2023-07-22T08:43:33;385.90;;;344.60;;
9807;SDS011;4943;52.550;13.462;2023-07-22T08:46:06;384.57;;;343.57;;
9807;SDS011;4943;52.550;13.462;2023-07-22T08:48:35;402.40;;;360.20;;
9807;SDS011;4943;52.550;13.462;2023-07-22T08:51:09;412.87;;;370.53;;
9807;SDS011;4943;52.550;13.462;2023-07-22T08:53:40;415.53;;;372.67;;
9807;SDS011;4943;52.550;13.462;2023-07-22T08:56:11;425.37;;;382.93;;
9807;SDS011;4943;52.550;13.462;2023-07-22T08:58:39;402.70;;;360.87;;
9807;SDS011;4943;52.550;13.462;2023-07-22T09:01:09;431.70;;;388.73;;
9807;SDS011;4943;52.550;13.462;2023-07-22T09:03:38;403.13;;;361.07;;
9807;SDS011;4943;52.550;13.462;2023-07-22T09:06:09;397.43;;;356.03;;
9807;SDS011;4943;52.550;13.462;2023-07-22T09:08:38;403.57;;;361.70;;
9807;SDS011;4943;52.550;13.462;2023-07-22T09:11:06;418.80;;;376.67;;
9807;SDS011;4943;52.550;13.462;2023-07-22T09:13:34;406.13;;;364.37;;
9807;SDS011;4943;52.550;13.462;2023-07-22T09:16:05;437.93;;;395.03;;
9807;SDS011;4943;52.550;13.462;2023-07-22T09:18:34;436.93;;;394.23;;
9807;SDS011;4943;52.550;13.462;2023-07-22T09:21:02;444.17;;;401.37;;
9807;SDS011;4943;52.550;13.462;2023-07-22T09:23:35;443.17;;;400.10;;
9807;SDS011;4943;52.550;13.462;2023-07-22T09:26:08;454.40;;;410.87;;
9807;SDS011;4943;52.550;13.462;2023-07-22T09:28:47;449.97;;;406.70;;
9807;SDS011;4943;52.550;13.462;2023-07-22T09:31:16;440.57;;;397.73;;
9807;SDS011;4943;52.550;13.462;2023-07-22T09:33:44;438.27;;;395.47;;
9807;SDS011;4943;52.550;13.462;2023-07-22T09:36:12;431.50;;;389.03;;
9807;SDS011;4943;52.550;13.462;2023-07-22T09:38:42;428.83;;;386.40;;
9807;SDS011;4943;52.550;13.462;2023-07-22T09:41:10;449.30;;;406.37;;
9807;SDS011;4943;52.550;13.462;2023-07-22T09:43:40;443.47;;;400.67;;
9807;SDS011;4943;52.550;13.462;2023-07-22T09:46:08;451.63;;;408.33;;
9807;SDS011;4943;52.550;13.462;2023-07-22T09:48:40;451.67;;;408.27;;
9807;SDS011;4943;52.550;13.462;2023-07-22T09:51:12;486.40;;;442.23;;
9807;SDS011;4943;52.550;13.462;2023-07-22T09:53:46;492.60;;;447.70;;
9807;SDS011;4943;52.550;13.462;2023-07-22T09:56:15;521.67;;;476.30;;
9807;SDS011;4943;52.550;13.462;2023-07-22T09:58:43;527.67;;;482.03;;
9807;SDS011;4943;52.550;13.462;2023-07-22T10:01:14;499.63;;;455.07;;
9807;SDS011;4943;52.550;13.462;2023-07-22T10:03:47;514.53;;;469.70;;
9807;SDS011;4943;52.550;13.462;2023-07-22T10:06:21;512.37;;;467.37;;
9807;SDS011;4943;52.550;13.462;2023-07-22T10:08:53;516.93;;;471.97;;
9807;SDS011;4943;52.550;13.462;2023-07-22T10:11:23;539.80;;;494.17;;
9807;SDS011;4943;52.550;13.462;2023-07-22T10:13:55;541.67;;;495.90;;
9807;SDS011;4943;52.550;13.462;2023-07-22T10:16:24;504.37;;;459.67;;
9807;SDS011;4943;52.550;13.462;2023-07-22T10:18:53;525.00;;;479.67;;
9807;SDS011;4943;52.550;13.462;2023-07-22T10:21:21;534.50;;;488.97;;
9807;SDS011;4943;52.550;13.462;2023-07-22T10:23:51;535.87;;;490.30;;
9807;SDS011;4943;52.550;13.462;2023-07-22T10:26:21;538.93;;;493.27;;
9807;SDS011;4943;52.550;13.462;2023-07-22T10:29:09;532.13;;;486.43;;
9807;SDS011;4943;52.550;13.462;2023-07-22T10:31:38;553.57;;;507.63;;
9807;SDS011;4943;52.550;13.462;2023-07-22T10:34:06;529.37;;;484.13;;
9807;SDS011;4943;52.550;13.462;2023-07-22T10:36:35;521.73;;;476.67;;
9807;SDS011;4943;52.550;13.462;2023-07-22T10:39:05;525.20;;;480.00;;
9807;SDS011;4943;52.550;13.462;2023-07-22T10:41:33;545.60;;;499.80;;
9807;SDS011;4943;52.550;13.462;2023-07-22T10:44:06;526.20;;;480.87;;
9807;SDS011;4943;52.550;13.462;2023-07-22T10:46:38;474.67;;;431.07;;
9807;SDS011;4943;52.550;13.462;2023-07-22T10:49:10;528.13;;;482.90;;
9807;SDS011;4943;52.550;13.462;2023-07-22T10:51:39;505.27;;;460.73;;
9807;SDS011;4943;52.550;13.462;2023-07-22T10:54:11;508.07;;;463.00;;
9807;SDS011;4943;52.550;13.462;2023-07-22T10:56:41;495.87;;;451.60;;
9807;SDS011;4943;52.550;13.462;2023-07-22T10:59:10;521.37;;;476.23;;
9807;SDS011;4943;52.550;13.462;2023-07-22T11:01:39;525.37;;;480.30;;
9807;SDS011;4943;52.550;13.462;2023-07-22T11:04:21;521.50;;;476.50;;
9807;SDS011;4943;52.550;13.462;2023-07-22T11:07:08;508.30;;;463.60;;
9807;SDS011;4943;52.550;13.462;2023-07-22T11:09:41;517.13;;;472.20;;
9807;SDS011;4943;52.550;13.462;2023-07-22T11:12:13;503.23;;;458.77;;
9807;SDS011;4943;52.550;13.462;2023-07-22T11:14:47;533.30;;;487.80;;
9807;SDS011;4943;52.550;13.462;2023-07-22T11:17:17;535.43;;;490.00;;
9807;SDS011;4943;52.550;13.462;2023-07-22T11:19:46;540.10;;;494.33;;
9807;SDS011;4943;52.550;13.462;2023-07-22T11:22:15;541.53;;;495.73;;
9807;SDS011;4943;52.550;13.462;2023-07-22T11:24:45;567.83;;;521.30;;
9807;SDS011;4943;52.550;13.462;2023-07-22T11:27:13;554.03;;;507.87;;
9807;SDS011;4943;52.550;13.462;2023-07-22T11:29:42;543.07;;;497.30;;
9807;SDS011;4943;52.550;13.462;2023-07-22T11:32:14;576.53;;;529.70;;
9807;SDS011;4943;52.550;13.462;2023-07-22T11:34:43;583.83;;;536.90;;
9807;SDS011;4943;52.550;13.462;2023-07-22T11:37:12;605.27;;;557.67;;
9807;SDS011;4943;52.550;13.462;2023-07-22T11:39:41;589.70;;;542.77;;
9807;SDS011;4943;52.550;13.462;2023-07-22T11:42:12;586.87;;;539.80;;
9807;SDS011;4943;52.550;13.462;2023-07-22T11:44:40;584.93;;;538.13;;
9807;SDS011;4943;52.550;13.462;2023-07-22T11:47:09;587.90;;;541.03;;
9807;SDS011;4943;52.550;13.462;2023-07-22T11:49:38;573.93;;;527.33;;
9807;SDS011;4943;52.550;13.462;2023-07-22T11:52:09;594.03;;;546.93;;
9807;SDS011;4943;52.550;13.462;2023-07-22T11:54:38;590.40;;;543.33;;
9807;SDS011;4943;52.550;13.462;2023-07-22T11:57:12;599.17;;;551.73;;
9807;SDS011;4943;52.550;13.462;2023-07-22T11:59:43;597.00;;;549.70;;
9807;SDS011;4943;52.550;13.462;2023-07-22T12:02:12;594.83;;;547.53;;
9807;SDS011;4943;52.550;13.462;2023-07-22T12:04:41;599.50;;;552.17;;
9807;SDS011;4943;52.550;13.462;2023-07-22T12:07:21;593.07;;;545.57;;
9807;SDS011;4943;52.550;13.462;2023-07-22T12:09:51;592.23;;;545.20;;
9807;SDS011;4943;52.550;13.462;2023-07-22T12:12:21;605.67;;;558.03;;
9807;SDS011;4943;52.550;13.462;2023-07-22T12:15:00;589.70;;;542.70;;
9807;SDS011;4943;52.550;13.462;2023-07-22T12:17:42;600.00;;;552.53;;
9807;SDS011;4943;52.550;13.462;2023-07-22T12:20:12;610.13;;;562.57;;
9807;SDS011;4943;52.550;13.462;2023-07-22T12:22:41;601.80;;;554.63;;
9807;SDS011;4943;52.550;13.462;2023-07-22T12:25:10;616.13;;;568.43;;
9807;SDS011;4943;52.550;13.462;2023-07-22T12:27:40;599.43;;;552.27;;
9807;SDS011;4943;52.550;13.462;2023-07-22T12:30:08;615.30;;;567.60;;
9807;SDS011;4943;52.550;13.462;2023-07-22T12:32:36;605.03;;;557.67;;
9807;SDS011;4943;52.550;13.462;2023-07-22T12:35:05;630.70;;;582.47;;
9807;SDS011;4943;52.550;13.462;2023-07-22T12:37:34;634.63;;;586.10;;
9807;SDS011;4943;52.550;13.462;2023-07-22T12:40:03;644.57;;;595.63;;
9807;SDS011;4943;52.550;13.462;2023-07-22T12:42:35;665.00;;;615.43;;
9807;SDS011;4943;52.550;13.462;2023-07-22T12:45:05;680.85;;;630.90;;
9807;SDS011;4943;52.550;13.462;2023-07-22T12:47:34;676.90;;;626.95;;
9807;SDS011;4943;52.550;13.462;2023-07-22T12:50:03;682.83;;;632.90;;
9807;SDS011;4943;52.550;13.462;2023-07-22T12:52:34;667.90;;;618.67;;
9807;SDS011;4943;52.550;13.462;2023-07-22T12:55:05;679.22;;;629.20;;
9807;SDS011;4943;52.550;13.462;2023-07-22T12:57:33;707.63;;;656.90;;
9807;SDS011;4943;52.550;13.462;2023-07-22T13:00:02;711.50;;;660.30;;
9807;SDS011;4943;52.550;13.462;2023-07-22T13:02:35;702.53;;;651.75;;
9807;SDS011;4943;52.550;13.462;2023-07-22T13:05:03;705.10;;;654.33;;
9807;SDS011;4943;52.550;13.462;2023-07-22T13:07:33;696.55;;;646.30;;
9807;SDS011;4943;52.550;13.462;2023-07-22T13:10:01;698.22;;;647.78;;
9807;SDS011;4943;52.550;13.462;2023-07-22T13:12:33;694.53;;;644.42;;
9807;SDS011;4943;52.550;13.462;2023-07-22T13:15:01;697.83;;;647.28;;
9807;SDS011;4943;52.550;13.462;2023-07-22T13:17:29;670.03;;;620.80;;
9807;SDS011;4943;52.550;13.462;2023-07-22T13:19:59;694.05;;;643.95;;
9807;SDS011;4943;52.550;13.462;2023-07-22T13:22:27;685.43;;;635.33;;
9807;SDS011;4943;52.550;13.462;2023-07-22T13:24:56;656.67;;;607.77;;
9807;SDS011;4943;52.550;13.462;2023-07-22T13:27:24;666.63;;;616.97;;
9807;SDS011;4943;52.550;13.462;2023-07-22T13:29:52;655.77;;;606.77;;
9807;SDS011;4943;52.550;13.462;2023-07-22T13:32:20;639.90;;;591.47;;
9807;SDS011;4943;52.550;13.462;2023-07-22T13:34:48;660.80;;;611.60;;
9807;SDS011;4943;52.550;13.462;2023-07-22T13:37:18;671.93;;;622.17;;
9807;SDS011;4943;52.550;13.462;2023-07-22T13:39:46;654.47;;;605.43;;
9807;SDS011;4943;52.550;13.462;2023-07-22T13:42:14;649.97;;;600.87;;
9807;SDS011;4943;52.550;13.462;2023-07-22T13:44:42;664.53;;;615.17;;
9807;SDS011;4943;52.550;13.462;2023-07-22T13:47:10;674.07;;;624.27;;
9807;SDS011;4943;52.550;13.462;2023-07-22T13:49:38;670.60;;;621.20;;
9807;SDS011;4943;52.550;13.462;2023-07-22T13:52:06;659.47;;;610.40;;
9807;SDS011;4943;52.550;13.462;2023-07-22T13:54:36;678.63;;;629.03;;
9807;SDS011;4943;52.550;13.462;2023-07-22T13:57:04;672.20;;;622.63;;
9807;SDS011;4943;52.550;13.462;2023-07-22T13:59:33;671.47;;;622.10;;
9807;SDS011;4943;52.550;13.462;2023-07-22T14:02:02;666.93;;;617.67;;
9807;SDS011;4943;52.550;13.462;2023-07-22T14:04:30;675.80;;;626.03;;
9807;SDS011;4943;52.550;13.462;2023-07-22T14:06:58;664.60;;;615.33;;
9807;SDS011;4943;52.550;13.462;2023-07-22T14:09:26;641.63;;;592.80;;
9807;SDS011;4943;52.550;13.462;2023-07-22T14:11:56;667.73;;;618.43;;
9807;SDS011;4943;52.550;13.462;2023-07-22T14:14:24;651.37;;;602.50;;
9807;SDS011;4943;52.550;13.462;2023-07-22T14:16:55;671.30;;;621.93;;
9807;SDS011;4943;52.550;13.462;2023-07-22T14:19:23;663.03;;;613.80;;
9807;SDS011;4943;52.550;13.462;2023-07-22T14:21:51;668.73;;;619.27;;